This is the latest recevied weather packets stored in our database for station/object KB4KY. If no packets are shown the sender has not sent any weather packets the latest 1 day(s).
| Time | Temp. | Humidity | Pressure | Rain* | Wind** | Luminosity | Snow |
|---|---|---|---|---|---|---|---|
| 1778040189 | 15° C | 95% | 1005.3 hPa | 1.02 mm | 1.79 m/s, 210° | - | - |
| 1778039886 | 15.56° C | 95% | 1005.4 hPa | 2.29 mm | 1.79 m/s, 213° | - | - |
| 1778039584 | 15° C | 95% | 1005.5 hPa | 2.54 mm | 0.89 m/s, 189° | - | - |
| 1778039284 | 15.56° C | 95% | 1005.6 hPa | 2.79 mm | 2.68 m/s, 202° | - | - |
| 1778038689 | 15.56° C | 95% | 1005.6 hPa | 3.3 mm | 1.79 m/s, 209° | - | - |
| 1778038088 | 15° C | 95% | 1005.8 hPa | 3.81 mm | 1.79 m/s, 194° | - | - |
| 1778037480 | 15.56° C | 95% | 1006.1 hPa | 4.06 mm | 1.34 m/s, 175° | - | - |
| 1778037187 | 15.56° C | 95% | 1006.1 hPa | 3.81 mm | 2.24 m/s, 206° | - | - |
| 1778036997 | 15.56° C | 95% | 1006.4 hPa | 3.56 mm | 2.24 m/s, 226° | - | - |
| 1778036881 | 15.56° C | 95% | 1006.4 hPa | 3.56 mm | 2.24 m/s, 226° | - | - |
| 1778036590 | 15.56° C | 93% | 1006.4 hPa | 3.05 mm | 0 m/s | - | - |
| 1778036280 | 15.56° C | 92% | 1006.6 hPa | 1.78 mm | 0 m/s | - | - |
| 1778035983 | 16.11° C | 92% | 1006.4 hPa | 1.52 mm | 0.89 m/s, 201° | - | - |
| 1778035687 | 16.11° C | 92% | 1006.6 hPa | 1.27 mm | 0.45 m/s, 202° | - | - |
| 1778035387 | 16.11° C | 90% | 1006.5 hPa | 0.76 mm | 0 m/s | - | - |
| 1778035080 | 16.11° C | 90% | 1006.7 hPa | 0.76 mm | 0 m/s | - | - |
| 1778034784 | 16.67° C | 89% | 1006.6 hPa | 0.51 mm | 0 m/s | - | - |
| 1778034481 | 16.67° C | 89% | 1006.5 hPa | 0.25 mm | 1.34 m/s, 243° | - | - |
| 1778034192 | 16.67° C | 88% | 1006.7 hPa | 0 mm | 0.45 m/s, 229° | - | - |
| 1778033881 | 17.22° C | 87% | 1006.7 hPa | 0 mm | 0.89 m/s, 213° | - | - |
| 1778033287 | 17.22° C | 84% | 1006.7 hPa | 0 mm | 0.89 m/s, 219° | - | - |
| 1778032985 | 17.78° C | 82% | 1006.8 hPa | 0 mm | 0 m/s | - | - |
| 1778032679 | 17.78° C | 80% | 1006.6 hPa | 0 mm | 2.24 m/s, 246° | - | - |
| 1778032376 | 17.78° C | 80% | 1006.6 hPa | 0 mm | 3.13 m/s, 210° | - | - |
| 1778032241 | 17.22° C | 83% | 1006.1 hPa | 0 mm | 0 m/s | - | - |
* Rain latest hour (hover to see other rain measurements)
** Current wind speed in m/s (hover to see current wind gust speed)